Time;durP1;ratioP1;P1;durP2;ratioP2;P2;SDS_P1;SDS_P2;PMS_P1;PMS_P2;Temp;Humidity;BMP_temperature;BMP_pressure;BME280_temperature;BME280_humidity;BME280_pressure;Samples;Min_cycle;Max_cycle;Signal;HPM_P1;HPM_P2
2022/04/12 00:00:12;;;;;;;0.93;0.63;;;;;;;9.35;45.14;99482.00;4954988;29;20173;-86
2022/04/12 00:02:38;;;;;;;2.57;0.80;;;;;;;9.37;45.17;99473.16;4954649;29;20300;-86
2022/04/12 00:05:04;;;;;;;2.10;1.00;;;;;;;9.38;45.32;99474.00;4954671;29;20187;-85
2022/04/12 00:07:29;;;;;;;1.60;0.83;;;;;;;9.48;45.23;99475.31;4937714;29;20192;-86
2022/04/12 00:09:55;;;;;;;1.63;1.00;;;;;;;9.36;45.28;99476.69;4937988;29;20180;-85
2022/04/12 00:12:20;;;;;;;2.20;1.40;;;;;;;9.36;45.03;99475.81;4954854;29;20266;-86
2022/04/12 00:14:46;;;;;;;2.20;0.70;;;;;;;9.35;45.19;99484.59;4937734;29;20185;-87
2022/04/12 00:19:56;;;;;;;1.07;0.70;;;;;;;9.40;44.83;99475.66;4955076;29;20192;-86
2022/04/12 00:22:21;;;;;;;1.47;0.73;;;;;;;9.50;44.52;99470.88;4954397;29;20174;-84
2022/04/12 00:24:47;;;;;;;2.10;0.93;;;;;;;9.37;45.24;99469.69;4954703;29;20179;-86
2022/04/12 00:27:12;;;;;;;2.07;1.33;;;;;;;9.31;45.06;99468.19;4937562;29;20278;-85
2022/04/12 00:29:38;;;;;;;0.50;0.40;;;;;;;9.35;44.68;99471.53;4937524;29;20185;-85
2022/04/12 00:32:03;;;;;;;1.07;0.70;;;;;;;9.34;44.91;99456.72;4937830;29;20181;-86
2022/04/12 00:34:29;;;;;;;3.00;0.93;;;;;;;9.34;44.82;99467.19;4937702;29;20276;-86
2022/04/12 00:36:54;;;;;;;1.73;1.10;;;;;;;9.32;44.29;99466.41;4938517;29;20635;-85
2022/04/12 00:39:20;;;;;;;1.87;0.80;;;;;;;9.33;44.89;99463.72;4957824;29;20193;-86
2022/04/12 00:41:45;;;;;;;0.83;0.60;;;;;;;9.23;45.12;99465.03;4957722;28;20196;-86
2022/04/12 00:44:11;;;;;;;1.60;0.87;;;;;;;9.31;44.58;99464.69;4940770;29;20211;-85
2022/04/12 00:46:36;;;;;;;2.27;0.80;;;;;;;9.39;45.00;99463.47;4940665;29;20196;-85
2022/04/12 00:49:02;;;;;;;2.40;0.83;;;;;;;9.39;44.54;99462.63;4958206;29;20260;-86
2022/04/12 00:51:28;;;;;;;1.07;0.97;;;;;;;9.26;44.35;99468.38;4940682;29;20625;-85
2022/04/12 00:53:56;;;;;;;1.80;0.80;;;;;;;9.26;44.50;99463.16;4940650;29;20224;-85
2022/04/12 00:56:22;;;;;;;2.60;0.90;;;;;;;9.38;44.31;99469.59;4957802;29;20262;-86
2022/04/12 00:58:49;;;;;;;1.67;0.93;;;;;;;9.24;44.83;99469.34;4940630;29;20283;-86
2022/04/12 01:01:15;;;;;;;3.27;0.90;;;;;;;9.31;44.62;99465.56;4940536;29;20190;-86
2022/04/12 01:03:40;;;;;;;2.03;1.00;;;;;;;9.20;44.35;99473.84;4940318;29;20208;-82
2022/04/12 01:06:07;;;;;;;3.10;1.47;;;;;;;9.23;44.16;99467.66;4957383;29;20184;-85
2022/04/12 01:08:33;;;;;;;1.13;0.60;;;;;;;9.25;44.03;99461.44;4957870;29;20227;-86
2022/04/12 01:11:04;;;;;;;1.77;1.00;;;;;;;9.26;44.12;99462.28;4957876;29;20180;-86
2022/04/12 01:13:29;;;;;;;1.67;0.73;;;;;;;9.17;44.34;99468.75;4957319;29;20269;-86
2022/04/12 01:15:55;;;;;;;1.33;0.70;;;;;;;9.33;44.10;99461.09;4957254;29;20270;-85
2022/04/12 01:18:20;;;;;;;1.00;0.90;;;;;;;9.17;43.91;99467.94;4957137;29;20181;-85
2022/04/12 01:20:46;;;;;;;1.40;0.50;;;;;;;9.51;43.67;99467.34;4957124;29;20191;-85
2022/04/12 01:24:00;;;;;;;2.53;0.77;;;;;;;9.50;43.29;99460.41;4940112;29;20202;-85
2022/04/12 01:26:25;;;;;;;0.67;0.37;;;;;;;9.39;43.29;99462.63;4915176;29;20193;-86
2022/04/12 01:28:51;;;;;;;1.37;0.60;;;;;;;9.30;43.76;99460.41;4957233;29;20178;-85
2022/04/12 01:31:16;;;;;;;1.00;0.77;;;;;;;9.34;43.27;99454.13;4956888;29;20640;-85
2022/04/12 01:33:42;;;;;;;2.40;1.13;;;;;;;9.38;43.05;99455.72;4940269;29;20187;-85
2022/04/12 01:36:07;;;;;;;1.77;0.83;;;;;;;9.08;44.25;99448.22;4940516;29;20190;-85
2022/04/12 01:38:33;;;;;;;1.37;0.83;;;;;;;9.07;44.08;99456.97;4939936;29;20629;-85
2022/04/12 01:40:58;;;;;;;1.17;0.70;;;;;;;9.17;43.28;99458.28;4956579;28;20212;-82
2022/04/12 01:43:24;;;;;;;1.57;0.50;;;;;;;9.03;43.65;99455.41;4939730;29;20204;-85
2022/04/12 01:45:55;;;;;;;2.60;0.60;;;;;;;8.96;43.22;99464.41;4956638;29;20254;-86
2022/04/12 01:48:20;;;;;;;1.17;0.90;;;;;;;9.05;44.05;99458.81;4956080;28;20267;-86
2022/04/12 01:50:46;;;;;;;2.37;0.60;;;;;;;9.03;43.58;99452.81;4956657;29;20249;-86
2022/04/12 01:53:11;;;;;;;1.57;0.60;;;;;;;9.08;43.55;99458.69;4956465;29;20222;-87
2022/04/12 01:55:37;;;;;;;0.80;0.50;;;;;;;9.08;43.75;99461.31;4956442;29;20180;-86
2022/04/12 01:58:03;;;;;;;3.20;1.20;;;;;;;8.96;44.22;99463.56;4956706;29;20183;-86
2022/04/12 02:00:30;;;;;;;1.67;0.67;;;;;;;8.91;43.62;99466.34;4956441;29;20181;-86
2022/04/12 02:02:55;;;;;;;0.63;0.50;;;;;;;8.74;44.63;99462.72;4939390;29;20208;-86
2022/04/12 02:05:21;;;;;;;1.43;0.80;;;;;;;8.74;43.66;99468.81;4939379;29;20564;-84
2022/04/12 02:07:46;;;;;;;0.93;0.40;;;;;;;8.76;43.63;99461.75;4939558;29;20192;-87
2022/04/12 02:10:12;;;;;;;2.13;1.10;;;;;;;8.88;43.63;99461.28;4956501;29;20531;-86
2022/04/12 02:12:38;;;;;;;0.60;0.57;;;;;;;8.94;43.77;99466.22;4939210;29;20196;-86
2022/04/12 02:15:04;;;;;;;1.57;0.77;;;;;;;8.90;43.45;99469.91;4939532;29;20183;-86
2022/04/12 02:17:29;;;;;;;4.77;1.17;;;;;;;8.96;43.69;99474.84;4939174;29;20711;-86
2022/04/12 02:19:55;;;;;;;3.40;1.00;;;;;;;9.01;43.76;99466.84;4939119;29;20185;-86
2022/04/12 02:22:20;;;;;;;1.40;0.83;;;;;;;9.03;43.23;99465.88;4955947;29;20188;-85
2022/04/12 02:24:46;;;;;;;1.67;0.97;;;;;;;8.96;43.54;99461.78;4939033;29;20187;-85
2022/04/12 02:27:12;;;;;;;4.30;1.57;;;;;;;9.00;43.68;99462.53;4956483;29;20180;-86
2022/04/12 02:29:37;;;;;;;0.33;0.30;;;;;;;8.97;43.80;99470.47;4939020;29;20245;-86
2022/04/12 02:32:03;;;;;;;1.33;0.93;;;;;;;9.01;43.42;99467.72;4938983;29;20553;-86
2022/04/12 02:34:29;;;;;;;0.80;0.70;;;;;;;9.01;44.19;99478.16;4956078;29;20172;-85
2022/04/12 02:36:55;;;;;;;0.83;0.50;;;;;;;9.08;43.39;99469.16;4956031;29;20274;-85
2022/04/12 02:39:20;;;;;;;1.63;0.70;;;;;;;8.97;43.81;99473.09;4955730;29;20186;-86
2022/04/12 02:41:46;;;;;;;1.60;1.00;;;;;;;8.93;43.59;99480.25;4955549;28;20218;-86
2022/04/12 02:44:11;;;;;;;0.87;0.50;;;;;;;8.97;44.05;99480.94;4955803;29;20213;-86
2022/04/12 02:46:37;;;;;;;1.37;0.77;;;;;;;9.02;44.07;99473.75;4955592;29;20689;-85
2022/04/12 02:49:02;;;;;;;2.03;1.17;;;;;;;8.86;44.64;99473.53;4955552;29;20177;-86
2022/04/12 02:51:28;;;;;;;0.63;0.43;;;;;;;8.70;44.38;99469.00;4955512;29;20187;-86
2022/04/12 02:53:53;;;;;;;5.07;1.00;;;;;;;8.75;44.53;99469.66;4955473;29;20171;-85
2022/04/12 02:56:18;;;;;;;2.37;0.70;;;;;;;8.75;44.94;99473.13;4955403;29;20231;-86
2022/04/12 02:58:44;;;;;;;0.73;0.60;;;;;;;8.75;44.75;99473.13;4938533;29;20178;-83
2022/04/12 03:01:09;;;;;;;0.97;0.60;;;;;;;8.86;44.83;99478.75;4938097;29;20197;-86
2022/04/12 03:03:35;;;;;;;2.50;0.90;;;;;;;8.94;44.17;99481.91;4938289;29;20214;-85
2022/04/12 03:06:00;;;;;;;4.77;0.90;;;;;;;8.81;44.41;99485.06;4939244;29;20218;-86
2022/04/12 03:08:26;;;;;;;1.93;0.80;;;;;;;8.75;44.87;99478.38;4938329;29;20190;-85
2022/04/12 03:10:51;;;;;;;1.90;1.37;;;;;;;8.65;44.93;99482.22;4938334;29;20181;-85
2022/04/12 03:13:17;;;;;;;1.47;0.93;;;;;;;8.53;45.11;99490.56;4938617;29;20621;-85
2022/04/12 03:15:42;;;;;;;2.17;1.10;;;;;;;8.67;44.86;99488.25;4938321;29;20183;-84
2022/04/12 03:18:08;;;;;;;8.43;0.70;;;;;;;8.73;45.14;99489.75;4938534;29;20257;-86
2022/04/12 03:20:34;;;;;;;1.27;0.60;;;;;;;8.61;44.92;99488.50;4938159;29;20630;-86
2022/04/12 03:22:59;;;;;;;3.20;0.60;;;;;;;8.70;44.93;99488.13;4955023;29;20719;-85
2022/04/12 03:25:25;;;;;;;0.90;0.70;;;;;;;8.57;44.59;99482.53;4938098;29;20365;-85
2022/04/12 03:27:50;;;;;;;3.13;1.00;;;;;;;8.53;45.74;99487.94;4937988;29;20190;-86
2022/04/12 03:30:16;;;;;;;2.00;0.70;;;;;;;8.52;45.27;99487.06;4955534;29;20264;-86
2022/04/12 03:32:42;;;;;;;1.43;0.70;;;;;;;8.38;45.51;99488.53;4938313;29;20177;-87
2022/04/12 03:35:07;;;;;;;2.23;0.90;;;;;;;8.51;44.70;99485.41;4938352;29;20192;-85
2022/04/12 03:37:33;;;;;;;1.40;0.77;;;;;;;8.50;45.04;99481.06;4938027;29;20185;-86
2022/04/12 03:39:58;;;;;;;1.20;0.63;;;;;;;8.63;44.97;99490.13;4954881;28;20266;-86
2022/04/12 03:42:24;;;;;;;1.67;0.93;;;;;;;8.63;44.43;99487.53;4938494;29;20213;-86
2022/04/12 03:44:49;;;;;;;1.27;0.80;;;;;;;8.64;45.11;99483.16;4938009;29;20192;-86
2022/04/12 03:47:15;;;;;;;2.97;0.60;;;;;;;8.54;44.71;99495.69;4954795;29;20612;-86
2022/04/12 03:49:41;;;;;;;1.43;0.80;;;;;;;8.65;44.93;99484.84;4937932;29;20185;-85
2022/04/12 03:52:06;;;;;;;0.73;0.67;;;;;;;8.52;45.04;99489.69;4938432;29;20180;-87
2022/04/12 03:54:32;;;;;;;1.57;1.00;;;;;;;8.48;44.75;99489.88;4938904;29;20689;-87
2022/04/12 03:56:57;;;;;;;1.83;1.27;;;;;;;8.51;44.99;99495.84;4954761;29;20329;-87
2022/04/12 03:59:23;;;;;;;2.00;0.90;;;;;;;8.66;44.56;99494.38;4938658;29;20188;-86
2022/04/12 04:01:49;;;;;;;2.23;1.17;;;;;;;8.57;44.20;99497.34;4954687;29;20205;-86
2022/04/12 04:04:15;;;;;;;3.03;1.00;;;;;;;8.69;44.42;99494.28;4954563;29;20272;-86
2022/04/12 04:06:41;;;;;;;3.33;1.07;;;;;;;8.70;44.26;99511.63;4938280;29;20262;-84
2022/04/12 04:09:06;;;;;;;2.80;1.20;;;;;;;8.69;44.70;99507.34;4937759;29;20653;-86
2022/04/12 04:11:32;;;;;;;2.30;1.10;;;;;;;8.58;44.62;99501.66;4955157;28;20228;-84
2022/04/12 04:14:00;;;;;;;1.07;0.83;;;;;;;8.84;43.67;99508.47;4941361;29;20193;-86
2022/04/12 04:16:26;;;;;;;1.10;0.77;;;;;;;8.91;44.55;99513.41;4958267;29;20523;-86
2022/04/12 04:18:51;;;;;;;1.57;0.87;;;;;;;8.94;43.31;99515.03;4941634;29;20200;-85
2022/04/12 04:21:17;;;;;;;3.53;1.27;;;;;;;8.91;44.06;99516.03;4958238;29;20177;-86
2022/04/12 04:23:42;;;;;;;3.80;1.10;;;;;;;9.05;43.08;99505.00;4941196;29;20295;-86
2022/04/12 04:26:08;;;;;;;1.30;1.00;;;;;;;8.99;43.48;99521.78;4941191;29;20680;-85
2022/04/12 04:28:34;;;;;;;1.53;1.00;;;;;;;9.08;43.33;99516.22;4941166;29;20215;-86
2022/04/12 04:30:59;;;;;;;1.43;1.00;;;;;;;9.25;43.19;99511.13;4941671;29;20181;-86
2022/04/12 04:33:25;;;;;;;1.43;0.60;;;;;;;9.49;42.17;99518.88;4958057;29;20551;-85
2022/04/12 04:35:51;;;;;;;1.90;1.23;;;;;;;9.87;42.07;99518.09;4957956;29;20190;-86
2022/04/12 04:38:17;;;;;;;1.53;0.80;;;;;;;10.26;41.87;99516.38;4941016;29;20185;-86
2022/04/12 04:40:42;;;;;;;2.47;0.77;;;;;;;10.72;40.73;99509.84;4958050;28;20193;-86
2022/04/12 04:43:08;;;;;;;0.90;0.60;;;;;;;11.22;39.38;99523.13;4941112;29;20205;-86
2022/04/12 04:45:35;;;;;;;2.27;0.73;;;;;;;11.71;38.21;99514.53;4941138;29;20185;-85
2022/04/12 04:48:02;;;;;;;1.97;0.83;;;;;;;11.98;37.62;99506.16;4940824;29;20224;-85
2022/04/12 04:50:32;;;;;;;5.00;1.10;;;;;;;12.71;36.50;99519.69;4957974;29;20219;-86
2022/04/12 04:52:59;;;;;;;3.30;0.90;;;;;;;13.71;35.04;99513.94;4941605;29;20192;-86
2022/04/12 04:55:25;;;;;;;1.80;0.60;;;;;;;14.11;34.53;99509.75;4957531;29;20185;-86
2022/04/12 04:57:56;;;;;;;6.33;2.00;;;;;;;14.18;34.25;99514.56;4940769;29;20280;-86
2022/04/12 05:00:22;;;;;;;1.53;0.80;;;;;;;14.06;34.43;99520.59;4957529;29;20178;-86
2022/04/12 05:02:53;;;;;;;2.57;0.80;;;;;;;13.96;34.75;99524.72;4940448;29;20222;-86
2022/04/12 05:05:19;;;;;;;3.00;0.77;;;;;;;13.93;34.14;99524.91;4957707;29;20194;-86
2022/04/12 05:07:47;;;;;;;2.50;0.90;;;;;;;14.09;34.39;99524.81;4957709;29;20263;-86
2022/04/12 05:10:15;;;;;;;1.30;0.60;;;;;;;14.20;33.77;99525.03;4940694;29;20192;-86
2022/04/12 05:12:40;;;;;;;2.57;1.10;;;;;;;14.17;33.70;99530.47;4957209;29;20184;-86
2022/04/12 05:15:06;;;;;;;5.57;0.90;;;;;;;13.68;34.69;99535.19;4957794;29;20251;-86
2022/04/12 05:17:32;;;;;;;1.70;0.80;;;;;;;13.71;34.96;99532.38;4940682;29;20224;-87
2022/04/12 05:19:57;;;;;;;1.10;0.63;;;;;;;13.30;35.84;99532.16;4940299;29;20632;-86
2022/04/12 05:22:24;;;;;;;3.03;0.70;;;;;;;13.41;35.78;99547.34;4957044;28;20198;-86
2022/04/12 05:24:49;;;;;;;4.23;1.40;;;;;;;13.64;35.15;99543.38;4939773;29;20195;-86
2022/04/12 05:27:15;;;;;;;1.63;0.97;;;;;;;13.30;35.21;99544.47;4940141;29;20184;-87
2022/04/12 05:29:41;;;;;;;1.47;0.67;;;;;;;13.17;36.27;99538.22;4940369;29;20181;-87
2022/04/12 05:32:09;;;;;;;0.50;0.43;;;;;;;13.18;35.41;99538.09;4956955;29;20524;-86
2022/04/12 05:34:41;;;;;;;1.33;0.60;;;;;;;13.11;36.65;99538.53;4957195;29;20177;-86
2022/04/12 05:37:07;;;;;;;3.43;0.90;;;;;;;13.09;36.81;99541.28;4956900;29;20179;-86
2022/04/12 05:39:32;;;;;;;1.93;0.80;;;;;;;12.89;35.63;99544.16;4956972;29;20185;-86
2022/04/12 05:42:01;;;;;;;2.20;1.00;;;;;;;12.75;36.34;99552.78;4939930;29;20178;-86
2022/04/12 05:44:28;;;;;;;0.70;0.50;;;;;;;12.70;37.47;99554.81;4956695;29;20201;-87
2022/04/12 05:46:53;;;;;;;3.33;0.50;;;;;;;12.82;37.00;99559.41;4940134;29;20194;-86
2022/04/12 05:49:19;;;;;;;1.03;0.50;;;;;;;12.99;36.46;99560.25;4939706;29;20682;-86
2022/04/12 05:51:44;;;;;;;3.37;1.00;;;;;;;13.08;35.86;99554.50;4940288;29;20261;-86
2022/04/12 05:54:10;;;;;;;0.93;0.60;;;;;;;13.23;36.81;99551.84;4956536;29;20180;-86
2022/04/12 05:56:35;;;;;;;1.10;0.63;;;;;;;13.35;36.67;99561.72;4957072;29;20183;-86
2022/04/12 05:59:00;;;;;;;3.63;1.97;;;;;;;13.27;35.79;99565.69;4939572;29;20194;-85
2022/04/12 06:01:26;;;;;;;1.13;0.63;;;;;;;13.17;35.82;99554.84;4956704;29;20194;-87
2022/04/12 06:03:51;;;;;;;2.97;0.90;;;;;;;13.25;35.82;99559.69;4939709;29;20287;-85
2022/04/12 06:06:17;;;;;;;1.50;0.60;;;;;;;13.44;35.62;99562.97;4939457;29;20224;-86
2022/04/12 06:08:42;;;;;;;2.07;0.87;;;;;;;13.16;35.26;99574.19;4956543;29;20188;-86
2022/04/12 06:11:07;;;;;;;2.33;0.60;;;;;;;13.13;36.12;99568.28;4939875;29;20199;-87
2022/04/12 06:13:33;;;;;;;0.97;0.70;;;;;;;13.29;36.02;99556.78;4956397;29;20593;-86
2022/04/12 06:15:58;;;;;;;1.00;0.63;;;;;;;13.22;35.06;99562.47;4956501;29;20187;-84
2022/04/12 06:18:24;;;;;;;5.23;0.93;;;;;;;13.52;35.35;99563.38;4956341;29;20195;-86
2022/04/12 06:20:49;;;;;;;3.50;0.97;;;;;;;13.81;34.82;99561.69;4939420;29;20627;-86
2022/04/12 06:23:15;;;;;;;1.53;0.70;;;;;;;14.25;33.88;99556.38;4955925;29;20314;-84
2022/04/12 06:25:40;;;;;;;3.77;1.70;;;;;;;14.60;33.01;99555.94;4939061;29;20185;-86
2022/04/12 06:28:07;;;;;;;1.70;0.83;;;;;;;15.18;33.04;99562.78;4938987;29;20181;-85
2022/04/12 06:30:33;;;;;;;1.10;0.63;;;;;;;15.39;32.49;99553.47;4939139;29;20185;-86
2022/04/12 06:32:58;;;;;;;2.50;0.70;;;;;;;15.80;32.11;99550.78;4956116;29;20188;-88
2022/04/12 06:35:24;;;;;;;1.80;0.47;;;;;;;15.85;31.31;99553.97;4938643;29;20665;-88
2022/04/12 06:37:59;;;;;;;4.27;0.60;;;;;;;15.87;31.72;99558.19;4939025;29;20200;-87
2022/04/12 06:40:25;;;;;;;1.57;0.30;;;;;;;15.64;31.23;99564.19;4955709;28;20198;-87
2022/04/12 06:42:51;;;;;;;2.63;0.63;;;;;;;15.70;31.87;99557.59;4955805;29;20212;-89
2022/04/12 06:45:17;;;;;;;3.40;0.73;;;;;;;16.03;31.77;99563.28;4938661;29;20198;-88
2022/04/12 06:47:43;;;;;;;1.57;0.90;;;;;;;16.09;31.37;99564.69;4955564;29;20180;-88
2022/04/12 06:50:10;;;;;;;2.60;1.00;;;;;;;16.07;32.35;99564.75;4955515;29;20184;-88
2022/04/12 06:52:36;;;;;;;1.60;0.60;;;;;;;15.96;31.98;99559.34;4955472;29;20185;-88
2022/04/12 06:55:02;;;;;;;2.03;0.77;;;;;;;16.33;31.92;99558.53;4955320;29;20190;-88
2022/04/12 06:57:33;;;;;;;4.23;1.03;;;;;;;16.68;31.83;99558.75;4938460;29;20188;-87
2022/04/12 06:59:58;;;;;;;2.70;0.63;;;;;;;16.87;30.85;99564.44;4955332;29;20184;-89
2022/04/12 07:02:24;;;;;;;1.17;0.60;;;;;;;16.98;31.05;99564.50;4955330;29;20263;-89
2022/04/12 07:04:49;;;;;;;1.00;0.77;;;;;;;17.00;30.65;99562.59;4955268;29;20625;-88
2022/04/12 07:07:15;;;;;;;1.03;0.70;;;;;;;17.31;30.78;99565.66;4955256;29;20181;-90
2022/04/12 07:09:40;;;;;;;3.23;0.93;;;;;;;17.49;30.26;99562.50;4955258;29;20189;-89
2022/04/12 07:12:06;;;;;;;3.53;1.00;;;;;;;17.50;29.87;99564.19;4955180;29;20676;-84
2022/04/12 07:14:33;;;;;;;2.50;1.33;;;;;;;17.40;29.93;99565.00;4955208;29;20176;-88
2022/04/12 07:16:59;;;;;;;4.27;1.03;;;;;;;17.39;29.67;99568.59;4955384;29;20596;-87
2022/04/12 07:19:25;;;;;;;1.37;0.70;;;;;;;17.22;29.95;99563.69;4955095;29;20181;-86
2022/04/12 07:21:50;;;;;;;2.60;0.70;;;;;;;17.03;30.83;99569.47;4955066;29;20560;-87
2022/04/12 07:24:18;;;;;;;1.37;0.80;;;;;;;17.26;30.81;99567.81;4955228;29;20656;-87
2022/04/12 07:26:44;;;;;;;2.87;1.07;;;;;;;17.14;30.72;99566.88;4955006;29;20177;-86
2022/04/12 07:29:10;;;;;;;2.47;1.03;;;;;;;16.72;32.08;99588.50;4954981;29;20244;-86
2022/04/12 07:31:35;;;;;;;3.03;1.43;;;;;;;17.00;32.39;99567.03;4954943;29;20177;-84
2022/04/12 07:34:01;;;;;;;2.67;0.90;;;;;;;17.11;31.38;99578.53;4954922;29;20220;-84
2022/04/12 07:36:26;;;;;;;2.03;0.80;;;;;;;17.09;31.37;99579.59;4954850;29;20176;-87
2022/04/12 07:38:52;;;;;;;4.87;1.20;;;;;;;16.98;30.59;99569.78;4955209;29;20268;-87
2022/04/12 07:41:18;;;;;;;0.77;0.40;;;;;;;16.95;30.13;99577.97;4954889;28;20188;-85
2022/04/12 07:43:45;;;;;;;2.07;0.97;;;;;;;16.77;31.39;99578.44;4938064;29;20204;-86
2022/04/12 07:46:12;;;;;;;1.47;0.60;;;;;;;16.92;31.64;99578.19;4937876;29;20521;-87
2022/04/12 07:48:39;;;;;;;2.20;0.90;;;;;;;17.17;33.17;99578.09;4958813;29;20176;-84
2022/04/12 07:51:04;;;;;;;1.23;0.80;;;;;;;16.99;31.73;99578.59;4959011;29;20181;-87
2022/04/12 07:53:30;;;;;;;1.17;0.70;;;;;;;16.99;30.55;99576.78;4958723;29;20217;-87
2022/04/12 07:55:55;;;;;;;2.07;1.00;;;;;;;17.04;31.45;99576.44;4958961;29;20191;-88
2022/04/12 07:58:21;;;;;;;2.33;1.00;;;;;;;17.20;30.83;99584.97;4958635;29;20180;-88
2022/04/12 08:00:47;;;;;;;3.00;0.90;;;;;;;17.15;30.47;99579.16;4958917;29;20338;-88
2022/04/12 08:03:13;;;;;;;2.87;0.90;;;;;;;17.68;30.98;99569.97;4958569;29;20640;-88
2022/04/12 08:05:38;;;;;;;2.57;1.00;;;;;;;17.95;31.17;99559.91;4958512;29;20574;-87
2022/04/12 08:08:05;;;;;;;1.97;0.90;;;;;;;17.60;28.92;99577.66;4941502;29;20250;-87
2022/04/12 08:10:31;;;;;;;2.40;1.30;;;;;;;17.46;30.36;99556.56;4958966;29;20184;-87
2022/04/12 08:12:57;;;;;;;4.97;0.90;;;;;;;17.73;31.00;99559.88;4942038;29;20659;-89
2022/04/12 08:15:23;;;;;;;3.83;1.33;;;;;;;17.63;28.36;99550.91;4941383;29;20188;-89
2022/04/12 08:17:49;;;;;;;1.83;0.80;;;;;;;17.62;28.99;99552.72;4958341;29;20184;-89
2022/04/12 08:20:15;;;;;;;1.60;0.90;;;;;;;17.32;29.69;99554.94;4958195;29;20236;-87
2022/04/12 08:22:42;;;;;;;3.20;1.20;;;;;;;17.47;31.76;99556.47;4958302;29;20196;-88
2022/04/12 08:25:08;;;;;;;3.63;1.03;;;;;;;17.85;29.93;99548.31;4958239;29;20185;-88
2022/04/12 08:27:34;;;;;;;1.83;1.03;;;;;;;17.83;28.61;99549.41;4958131;29;20207;-89
2022/04/12 08:30:00;;;;;;;3.33;0.80;;;;;;;17.79;29.57;99533.72;4941181;29;20221;-88
2022/04/12 08:32:25;;;;;;;4.97;1.20;;;;;;;17.54;29.65;99555.09;4958275;29;20339;-87
2022/04/12 08:34:53;;;;;;;4.47;1.13;;;;;;;17.80;29.39;99540.72;4958014;29;20761;-88
2022/04/12 08:37:19;;;;;;;1.97;0.53;;;;;;;18.10;29.42;99547.31;4957969;29;20288;-89
2022/04/12 08:39:47;;;;;;;4.20;0.97;;;;;;;18.14;29.67;99519.56;4957782;28;20284;-90
2022/04/12 08:42:12;;;;;;;2.33;0.60;;;;;;;18.46;29.49;99538.28;4958156;29;20158;-90
2022/04/12 08:44:47;;;;;;;3.90;1.20;;;;;;;18.34;28.50;99537.47;4941104;29;20211;-89
2022/04/12 08:47:22;;;;;;;2.97;0.97;;;;;;;18.28;28.81;99530.81;4958407;29;20192;-91
2022/04/12 08:49:48;;;;;;;5.07;1.00;;;;;;;18.25;29.73;99519.59;4958101;29;20153;-88
2022/04/12 08:52:25;;;;;;;2.03;0.97;;;;;;;18.33;27.89;99527.78;4957708;29;20601;-88
2022/04/12 08:55:05;;;;;;;2.73;1.00;;;;;;;17.94;28.27;99531.72;4940877;29;20263;-91
2022/04/12 08:58:03;;;;;;;1.57;0.80;;;;;;;17.61;29.58;99521.84;4957493;28;20269;-92
2022/04/12 09:00:40;;;;;;;2.27;1.17;;;;;;;17.28;29.38;99532.28;4940693;29;20209;-90
2022/04/12 09:03:05;;;;;;;1.73;0.80;;;;;;;17.00;28.94;99532.63;4957743;29;20189;-88
2022/04/12 09:05:34;;;;;;;1.73;0.77;;;;;;;17.25;30.05;99521.06;4940567;29;20182;-88
2022/04/12 09:07:59;;;;;;;6.23;0.90;;;;;;;17.44;30.08;99529.34;4957677;29;20688;-89
2022/04/12 09:10:35;;;;;;;3.23;0.80;;;;;;;18.08;30.26;99517.41;4957456;29;20174;-90
2022/04/12 09:13:12;;;;;;;1.83;0.93;;;;;;;18.16;27.94;99505.22;4957383;29;20584;-89
2022/04/12 09:15:46;;;;;;;1.03;0.53;;;;;;;18.28;27.43;99501.63;4957541;29;20244;-89
2022/04/12 09:18:45;;;;;;;1.33;0.60;;;;;;;18.13;27.85;99499.31;4940573;29;20184;-92
2022/04/12 09:21:18;;;;;;;4.53;0.90;;;;;;;17.79;27.63;99506.38;4957554;29;20233;-90
2022/04/12 09:24:15;;;;;;;1.53;0.77;;;;;;;17.80;28.03;99492.97;4957102;29;20221;-91
2022/04/12 09:26:41;;;;;;;4.30;1.37;;;;;;;18.13;28.78;99497.47;4957219;28;20185;-89
2022/04/12 09:29:06;;;;;;;1.57;0.67;;;;;;;17.99;26.10;99497.72;4957281;29;20598;-88
2022/04/12 09:31:35;;;;;;;1.90;0.80;;;;;;;18.08;25.99;99490.88;4957011;29;20177;-90
2022/04/12 09:34:00;;;;;;;1.57;0.60;;;;;;;18.38;27.82;99493.78;4957327;29;20175;-87
2022/04/12 09:36:34;;;;;;;1.33;0.67;;;;;;;18.51;26.80;99488.34;4956936;29;20707;-90
2022/04/12 09:39:08;;;;;;;1.70;0.80;;;;;;;18.55;27.53;99485.38;4956960;29;20230;-90
2022/04/12 09:41:34;;;;;;;2.77;1.00;;;;;;;18.55;28.01;99474.75;4956908;28;20184;-85
2022/04/12 09:46:45;;;;;;;2.40;0.90;;;;;;;18.37;26.08;99470.84;4957341;29;20180;-90
2022/04/12 09:49:13;;;;;;;1.20;0.50;;;;;;;18.23;27.08;99474.59;4939779;29;20177;-90
2022/04/12 09:51:39;;;;;;;0.60;0.40;;;;;;;18.43;26.23;99470.34;4956996;29;20669;-90
2022/04/12 09:54:15;;;;;;;1.37;0.60;;;;;;;17.90;25.43;99466.59;4956600;29;20262;-89
2022/04/12 09:56:46;;;;;;;3.93;0.80;;;;;;;18.33;25.66;99462.28;4957035;29;20165;-90
2022/04/12 09:59:14;;;;;;;4.67;0.67;;;;;;;18.36;25.37;99458.53;4957107;29;20185;-90
2022/04/12 10:02:01;;;;;;;1.90;0.77;;;;;;;18.29;24.63;99446.75;4956998;29;20213;-90
2022/04/12 10:04:28;;;;;;;2.23;0.77;;;;;;;18.55;26.12;99445.53;4956116;29;20217;-89
2022/04/12 10:07:13;;;;;;;1.87;0.70;;;;;;;18.78;25.21;99444.53;4956583;29;20179;-90
2022/04/12 10:09:52;;;;;;;1.57;0.63;;;;;;;18.82;25.51;99431.81;4956078;28;20176;-91
2022/04/12 10:12:24;;;;;;;3.77;0.70;;;;;;;18.90;25.75;99440.84;4956325;29;20256;-87
2022/04/12 10:14:55;;;;;;;1.20;0.60;;;;;;;18.64;25.48;99436.81;4956295;29;20629;-90
2022/04/12 10:17:32;;;;;;;1.73;0.80;;;;;;;18.54;25.85;99437.69;4956088;29;20179;-91
2022/04/12 10:19:58;;;;;;;0.93;0.60;;;;;;;18.81;26.71;99423.03;4956136;29;20516;-91
2022/04/12 10:22:26;;;;;;;0.97;0.60;;;;;;;19.06;26.40;99426.31;4955945;29;20184;-87
2022/04/12 10:25:16;;;;;;;3.43;0.43;;;;;;;18.79;26.26;99422.28;4955988;29;20283;-89
2022/04/12 10:27:41;;;;;;;0.57;0.33;;;;;;;19.13;24.79;99406.25;4956192;29;20712;-89
2022/04/12 10:30:16;;;;;;;1.53;0.57;;;;;;;18.76;24.74;99419.88;4955932;29;20200;-88
2022/04/12 10:35:54;;;;;;;0.73;0.30;;;;;;;19.00;24.90;99401.06;4945676;29;20550;-90
2022/04/12 10:38:22;;;;;;;1.87;0.60;;;;;;;19.32;25.35;99396.59;4940184;29;20478;-88
2022/04/12 10:41:36;;;;;;;2.17;0.90;;;;;;;19.16;24.56;99396.19;4955579;28;20181;-89
2022/04/12 10:44:02;;;;;;;1.37;0.47;;;;;;;19.10;25.34;99388.75;4954762;28;20704;-90
2022/04/12 10:46:46;;;;;;;0.50;0.40;;;;;;;19.25;24.09;99378.63;4955976;29;20201;-89
2022/04/12 10:49:12;;;;;;;2.00;0.47;;;;;;;19.26;24.70;99389.13;4956153;29;20161;-87
2022/04/12 10:51:39;;;;;;;1.80;0.70;;;;;;;18.90;23.64;99390.38;4955531;29;20540;-90
2022/04/12 10:54:06;;;;;;;1.57;0.60;;;;;;;19.25;24.19;99378.63;4938756;29;20176;-89
2022/04/12 10:56:37;;;;;;;1.30;0.60;;;;;;;19.37;23.70;99382.91;4938980;29;20187;-93
2022/04/12 10:59:02;;;;;;;1.33;0.70;;;;;;;19.60;24.63;99372.03;4955454;29;20216;-87
2022/04/12 11:01:35;;;;;;;2.77;0.90;;;;;;;19.77;24.02;99367.06;4955391;29;20231;-90
2022/04/12 11:04:41;;;;;;;2.07;0.80;;;;;;;19.61;24.44;99370.22;4955521;29;20199;-91
2022/04/12 11:07:33;;;;;;;2.33;0.60;;;;;;;20.15;24.33;99356.59;4896156;29;20202;-90
2022/04/12 11:10:13;;;;;;;2.17;0.83;;;;;;;19.65;25.66;99362.81;4954221;28;20636;-89
2022/04/12 11:12:50;;;;;;;0.80;0.50;;;;;;;19.74;24.57;99365.53;4955742;29;20168;-88
2022/04/12 11:15:53;;;;;;;2.37;0.93;;;;;;;19.31;24.38;99359.53;4955754;29;20227;-90
2022/04/12 11:18:42;;;;;;;1.57;0.60;;;;;;;19.20;25.30;99354.25;4938335;29;20208;-90
2022/04/12 11:21:08;;;;;;;3.60;0.80;;;;;;;19.03;25.08;99351.19;4944367;28;20272;-91
2022/04/12 11:24:37;;;;;;;2.90;0.60;;;;;;;19.22;26.25;99344.34;4938132;29;20617;-90
2022/04/12 11:27:12;;;;;;;0.60;0.40;;;;;;;19.58;24.61;99343.88;4879060;29;20202;-88
2022/04/12 11:29:42;;;;;;;1.27;0.70;;;;;;;19.79;25.12;99333.19;4903996;29;20188;-89
2022/04/12 11:32:26;;;;;;;1.50;0.70;;;;;;;19.40;24.80;99340.16;4955205;29;20181;-91
2022/04/12 11:34:57;;;;;;;1.50;0.70;;;;;;;19.31;25.22;99323.13;4954839;29;20172;-92
2022/04/12 11:37:22;;;;;;;1.87;0.53;;;;;;;18.95;24.26;99334.22;4955360;29;20205;-90
2022/04/12 11:39:47;;;;;;;1.13;0.60;;;;;;;19.11;23.48;99312.50;4954981;28;20277;-90
2022/04/12 11:42:38;;;;;;;2.43;0.50;;;;;;;19.15;25.73;99316.59;4938049;29;20173;-90
2022/04/12 11:45:04;;;;;;;1.13;0.40;;;;;;;19.13;23.88;99310.59;4938375;29;20206;-86
2022/04/12 11:47:34;;;;;;;1.37;0.60;;;;;;;19.02;23.70;99304.34;4954865;29;20177;-89
2022/04/12 11:50:00;;;;;;;2.50;0.43;;;;;;;19.12;24.85;99303.56;4939089;29;20563;-86